NCAR-RAP Real-Time Weather Data

Output produced by METARs form (23 February 2020  02:20 UTC)
found at http://weather.rap.ucar.edu/surface/
 
KMOB 230156Z 00000KT 10SM CLR 08/02 A3035 RMK AO2 SLP277 T00780017
KMOB 230056Z 22005KT 10SM FEW050 SCT250 08/02 A3035 RMK AO2 SLP279 T00830017
KMOB 222356Z 08004KT 10SM FEW050 SCT250 11/M01 A3035 RMK AO2 SLP277 T01061006 10150 20106 55003
KMOB 222256Z 04003KT 10SM FEW050 FEW250 14/M04 A3034 RMK AO2 SLP273 T01391044
KMOB 222156Z 00000KT 10SM FEW050 FEW250 14/M04 A3036 RMK AO2 SLP280 T01441039
KMOB 222056Z VRB03KT 10SM FEW250 14/M03 A3036 RMK AO2 SLP278 T01441033 56034
KMOB 221956Z 10003KT 10SM FEW250 13/M03 A3037 RMK AO2 SLP285 T01331033
KMOB 221856Z 10SM FEW020 FEW250 13/M01 A3041 RMK AO2 SLP297 FU FEW020 T01331011
KMOB 221756Z 05006KT 10SM FEW050 FEW250 12/M01 A3046 RMK AO2 SLP312 T01221011 10122 21011 58015
KMOB 221656Z VRB03KT 10SM FEW250 11/M01 A3049 RMK AO2 SLP325 T01111011
KMOB 221556Z 07006KT 10SM FEW250 09/M01 A3050 RMK AO2 SLP327 T00941006
KMOB 221456Z 05005KT 10SM FEW250 07/01 A3050 RMK AO2 SLP327 T00670006 53012
KMOB 221356Z 04007KT 10SM FEW100 BKN250 04/00 A3048 RMK AO2 SLP322 T00390000
KMOB 221256Z 01005KT 10SM SCT250 01/M02 A3048 RMK AO2 SLP321 T00061017
KMOB 221156Z 36003KT 10SM FEW250 M01/M03 A3046 RMK AO2 SLP316 T10111028 10017 21011 51012
KMOB 221056Z AUTO 35004KT 10SM CLR M01/M03 A3046 RMK AO2 SLP315 T10061028
KMOB 220956Z AUTO 33005KT 10SM CLR M01/M02 A3044 RMK AO2 SLP309 T10061022
KMOB 220856Z AUTO 33004KT 10SM CLR 00/M03 A3043 RMK AO2 SLP303 T00001028 58010
KMOB 220756Z AUTO 01004KT 10SM CLR 01/M02 A3044 RMK AO2 SLP307 T00061022
KMOB 220656Z AUTO 36007KT 10SM CLR 01/M02 A3046 RMK AO2 SLP315 T00111022
KMOB 220556Z AUTO 35006KT 10SM CLR 02/M02 A3046 RMK AO2 SLP313 T00171022 10078 20017 401220017 58014
KMOB 220456Z 36006KT 10SM CLR 02/M03 A3048 RMK AO2 SLP321 T00221028
KMOB 220356Z 35006KT 10SM CLR 03/M03 A3050 RMK AO2 SLP330 T00331028
KMOB 220256Z 01008KT 10SM CLR 05/M03 A3050 RMK AO2 SLP329 T00501033 53016
KMOB 220156Z 36008KT 10SM CLR 06/M03 A3049 RMK AO2 SLP324 T00561033
KMOB 220056Z 01009KT 10SM CLR 06/M03 A3046 RMK AO2 SLP316 T00611033
KMOB 212356Z 01012KT 10SM CLR 08/M04 A3045 RMK AO2 SLP313 T00781044 10122 20078 53009
KMOB 212256Z 35010KT 10SM CLR 10/M04 A3044 RMK AO2 SLP307 T01001044
KMOB 212156Z 36008KT 10SM CLR 11/M04 A3042 RMK AO2 SLP302 T01111039
KMOB 212056Z 01015G25KT 10SM CLR 12/M04 A3043 RMK AO2 SLP302 T01171039 56020
KMOB 211956Z 36013G20KT 10SM CLR 11/M03 A3044 RMK AO2 SLP307 T01111033
KMOB 211856Z 36014G21KT 10SM CLR 11/M03 A3045 RMK AO2 SLP311 T01061028
KMOB 211756Z 01014G23KT 10SM FEW020 10/M03 A3049 RMK AO2 SLP323 T01001028 10100 20022 58007
KMOB 211656Z 36015G22KT 10SM FEW020 09/M02 A3052 RMK AO2 SLP333 T00891017
KMOB 211556Z 02012G21KT 10SM FEW020 07/M01 A3052 RMK AO2 SLP333 T00721006
KMOB 211509Z 02016KT 7SM SCT020 05/M01 A3051 RMK AO2 T00501006
KMOB 211456Z 01017G21KT 7SM BKN020 04/M01 A3051 RMK AO2 SLP330 T00391006 53014
KMOB 211356Z 01013KT 7SM OVC022 03/M01 A3049 RMK AO2 SLP323 T00331006
KMOB 211256Z 01012G21KT 7SM BKN024 BKN250 02/M01 A3047 RMK AO2 SLP317 T00221006
KMOB 211206Z 01017G23KT 7SM SCT024 BKN250 03/M01 A3043 RMK AO2 T00281011
KMOB 211156Z 36013G21KT 7SM BKN023 BKN250 03/M01 A3043 RMK AO2 SLP303 70055 T00331006 10061 20033 53020
KMOB 211056Z AUTO 01014G23KT 10SM OVC019 04/01 A3041 RMK AO2 PK WND 35028/1002 SLP297 T00440006
KMOB 210956Z AUTO 36014G24KT 10SM OVC017 05/02 A3039 RMK AO2 SLP289 T00500017
KMOB 210856Z AUTO 36013G23KT 10SM OVC018 06/02 A3037 RMK AO2 PK WND 02027/0842 SLP283 T00560022 50004
KMOB 210756Z AUTO 35015G19KT 10SM OVC018 06/03 A3037 RMK AO2 SLP284 T00560028
KMOB 210656Z AUTO 01016G23KT 10SM OVC015 06/03 A3036 RMK AO2 PK WND 36026/0609 SLP279 T00560033
KMOB 210652Z AUTO 36017G23KT 10SM OVC015 06/03 A3036 RMK AO2 PK WND 36026/0609
KMOB 210556Z AUTO 01014G23KT 10SM OVC012 06/04 A3035 RMK AO2 PK WND 36030/0530 SLP276 60000 T00610039 10089 20061 401610061 51011
KMOB 210456Z 01017G24KT 6SM BR OVC012 06/04 A3035 RMK AO2 PK WND 01027/0441 SLP276 T00610044
KMOB 210443Z 36019G27KT 6SM BR OVC013 07/05 A3035 RMK AO2 PK WND 01027/0441 T00670050
KMOB 210420Z 36019G24KT 6SM BR BKN008 OVC020 06/05 A3034 RMK AO2 T00610050
KMOB 210356Z 35017G26KT 6SM BR BKN010 OVC020 06/06 A3033 RMK AO2 PK WND 36026/0351 RAB33E41 SLP271 P0000 T00610056
KMOB 210256Z 36019G24KT 6SM BR BKN013 OVC019 08/06 A3032 RMK AO2 SLP265 T00780061 53034
KMOB 210229Z 36016G25KT 6SM BR OVC011 08/07 A3031 RMK AO2 T00780067